createdAt,value
2019-06-20T00:00:11.333Z,100175.73
2019-06-20T00:02:40.400Z,100180.90
2019-06-20T00:05:09.899Z,100189.42
2019-06-20T00:07:39.240Z,100197.08
2019-06-20T00:10:08.728Z,100198.36
2019-06-20T00:12:37.798Z,100198.89
2019-06-20T00:15:07.658Z,100203.28
2019-06-20T00:17:37.068Z,100198.55
2019-06-20T00:20:06.414Z,100199.89
2019-06-20T00:22:35.594Z,100198.73
2019-06-20T00:25:05.459Z,100202.22
2019-06-20T00:27:34.517Z,100205.19
2019-06-20T00:30:04.087Z,100202.32
2019-06-20T00:32:33.267Z,100167.75
2019-06-20T00:35:02.305Z,100202.54
2019-06-20T00:37:31.380Z,100209.64
2019-06-20T00:40:00.450Z,100209.52
2019-06-20T00:42:29.715Z,100206.18
2019-06-20T00:44:58.839Z,100211.11
2019-06-20T00:47:28.558Z,100208.02
2019-06-20T00:49:57.928Z,100214.21
2019-06-20T00:52:27.053Z,100210.97
2019-06-20T00:54:56.743Z,100214.13
2019-06-20T00:57:26.072Z,100222.36
2019-06-20T00:59:55.284Z,100219.43
2019-06-20T01:02:24.337Z,100227.05
2019-06-20T01:04:53.374Z,100233.94
2019-06-20T01:07:22.417Z,100227.54
2019-06-20T01:09:51.858Z,100230.41
2019-06-20T01:12:21.400Z,100228.90
2019-06-20T01:14:50.445Z,100232.87
2019-06-20T01:17:19.488Z,100241.47
2019-06-20T01:19:48.655Z,100239.09
2019-06-20T01:22:17.760Z,100237.69
2019-06-20T01:24:46.847Z,100234.29
2019-06-20T01:27:15.986Z,100244.23
2019-06-20T01:29:45.065Z,100235.70
2019-06-20T01:32:14.148Z,100244.73
2019-06-20T01:34:43.177Z,100247.78
2019-06-20T01:37:12.230Z,100246.58
2019-06-20T01:39:41.282Z,100258.56
2019-06-20T01:42:10.327Z,100257.98
2019-06-20T01:44:39.720Z,100256.31
2019-06-20T01:47:08.909Z,100260.64
2019-06-20T01:49:37.977Z,100262.66
2019-06-20T01:52:07.016Z,100261.55
2019-06-20T01:54:36.063Z,100263.64
2019-06-20T01:57:05.084Z,100265.66
2019-06-20T01:59:34.141Z,100266.73
2019-06-20T02:02:03.366Z,100271.77
2019-06-20T02:04:32.766Z,100271.38
2019-06-20T02:07:01.873Z,100268.75
2019-06-20T02:09:30.935Z,100264.88
2019-06-20T02:12:00.069Z,100261.70
2019-06-20T02:14:29.686Z,100259.19
2019-06-20T02:16:58.770Z,100263.09
2019-06-20T02:19:27.816Z,100259.67
2019-06-20T02:21:56.864Z,100259.47
2019-06-20T02:24:26.040Z,100257.05
2019-06-20T02:26:55.119Z,100260.63
2019-06-20T02:29:24.164Z,100256.39
2019-06-20T02:31:53.270Z,100255.23
2019-06-20T02:34:22.301Z,100253.81
2019-06-20T02:36:51.349Z,100254.78
2019-06-20T02:39:20.371Z,100263.59
2019-06-20T02:41:49.807Z,100270.13
2019-06-20T02:44:30.167Z,100270.55
2019-06-20T02:46:50.190Z,100265.97
2019-06-20T02:49:19.215Z,100264.24
2019-06-20T02:51:50.112Z,100269.89
2019-06-20T02:54:19.400Z,100271.67
2019-06-20T02:56:48.462Z,100278.50
2019-06-20T02:59:17.606Z,100284.61
2019-06-20T03:01:46.626Z,100284.80
2019-06-20T03:04:15.683Z,100286.28
2019-06-20T03:06:45.279Z,100291.19
2019-06-20T03:09:14.326Z,100293.01
2019-06-20T03:11:43.383Z,100306.55
2019-06-20T03:14:12.409Z,100308.05
2019-06-20T03:16:41.541Z,100320.69
2019-06-20T03:19:10.569Z,100322.70
2019-06-20T03:21:39.618Z,100319.43
2019-06-20T03:24:08.904Z,100326.14
2019-06-20T03:26:37.952Z,100324.84
2019-06-20T03:29:07.550Z,100326.95
2019-06-20T03:31:36.612Z,100325.56
2019-06-20T03:34:05.605Z,100330.31
2019-06-20T03:36:34.735Z,100331.67
2019-06-20T03:39:05.285Z,100334.61
2019-06-20T03:41:34.343Z,100338.37
2019-06-20T03:44:03.745Z,100342.25
2019-06-20T03:46:32.750Z,100353.00
2019-06-20T03:49:02.052Z,100345.14
2019-06-20T03:51:31.118Z,100352.04
2019-06-20T03:54:00.633Z,100349.97
2019-06-20T03:56:29.669Z,100354.17
2019-06-20T03:58:58.697Z,100346.97
2019-06-20T04:01:27.924Z,100354.28
2019-06-20T04:03:56.950Z,100354.17
2019-06-20T04:06:26.024Z,100354.74
2019-06-20T04:08:55.060Z,100363.48
2019-06-20T04:11:24.105Z,100355.08
2019-06-20T04:13:53.132Z,100360.44
2019-06-20T04:16:22.220Z,100362.44
2019-06-20T04:18:51.287Z,100362.11
2019-06-20T04:21:20.355Z,100373.98
2019-06-20T04:23:49.433Z,100373.09
2019-06-20T04:26:18.519Z,100375.64
2019-06-20T04:28:47.575Z,100373.16
2019-06-20T04:31:16.599Z,100369.81
2019-06-20T04:33:45.667Z,100366.61
2019-06-20T04:36:15.001Z,100370.64
2019-06-20T04:38:44.030Z,100375.59
2019-06-20T04:41:13.470Z,100377.62
2019-06-20T04:43:42.534Z,100380.30
2019-06-20T04:46:13.784Z,100377.03
2019-06-20T04:48:42.839Z,100374.66
2019-06-20T04:51:11.891Z,100381.78
2019-06-20T04:53:40.962Z,100376.67
2019-06-20T04:56:09.991Z,100375.30
2019-06-20T04:58:39.044Z,100379.34
2019-06-20T05:01:08.079Z,100386.53
2019-06-20T05:03:37.243Z,100391.05
2019-06-20T05:06:06.513Z,100394.08
2019-06-20T05:08:35.518Z,100393.86
2019-06-20T05:11:04.873Z,100391.40
2019-06-20T05:13:33.934Z,100395.33
2019-06-20T05:16:04.397Z,100392.10
2019-06-20T05:18:33.457Z,100392.55
2019-06-20T05:21:02.481Z,100391.45
2019-06-20T05:23:31.544Z,100394.33
2019-06-20T05:26:00.637Z,100397.55
2019-06-20T05:28:29.722Z,100404.20
2019-06-20T05:30:58.775Z,100404.85
2019-06-20T05:33:28.374Z,100403.91
2019-06-20T05:35:57.423Z,100409.81
2019-06-20T05:38:26.543Z,100409.59
2019-06-20T05:40:55.619Z,100412.95
2019-06-20T05:43:24.668Z,100418.70
2019-06-20T05:46:08.299Z,100423.05
2019-06-20T05:48:25.390Z,100419.08
2019-06-20T05:50:54.708Z,100427.86
2019-06-20T05:53:23.771Z,100431.32
2019-06-20T05:55:52.860Z,100432.57
2019-06-20T05:58:21.925Z,100434.01
2019-06-20T06:00:51.070Z,100433.13
2019-06-20T06:03:20.408Z,100427.37
2019-06-20T06:05:49.540Z,100432.42
2019-06-20T06:08:18.634Z,100436.82
2019-06-20T06:10:47.815Z,100437.13
2019-06-20T06:13:16.894Z,100441.38
2019-06-20T06:15:45.957Z,100443.79
2019-06-20T06:18:15.011Z,100435.70
2019-06-20T06:20:45.065Z,100440.98
2019-06-20T06:23:14.361Z,100439.11
2019-06-20T06:25:43.654Z,100442.28
2019-06-20T06:28:12.869Z,100439.34
2019-06-20T06:30:41.887Z,100439.64
2019-06-20T06:33:10.948Z,100444.70
2019-06-20T06:35:39.980Z,100448.33
2019-06-20T06:38:09.034Z,100446.07
2019-06-20T06:40:38.136Z,100443.28
2019-06-20T06:43:07.180Z,100442.94
2019-06-20T06:45:36.212Z,100448.30
2019-06-20T06:48:05.341Z,100434.67
2019-06-20T06:50:34.509Z,100431.44
2019-06-20T06:53:03.632Z,100435.27
2019-06-20T06:55:32.677Z,100430.91
2019-06-20T06:58:01.752Z,100432.15
2019-06-20T07:00:30.816Z,100428.34
2019-06-20T07:02:59.952Z,100436.09
2019-06-20T07:05:29.092Z,100438.91
2019-06-20T07:07:58.259Z,100432.59
2019-06-20T07:10:27.736Z,100433.83
2019-06-20T07:12:56.792Z,100439.00
2019-06-20T07:15:26.769Z,100445.14
2019-06-20T07:17:55.813Z,100441.95
2019-06-20T07:20:25.075Z,100439.02
2019-06-20T07:22:54.783Z,100435.17
2019-06-20T07:25:23.865Z,100434.00
2019-06-20T07:27:52.895Z,100437.86
2019-06-20T07:30:22.581Z,100437.58
2019-06-20T07:32:51.613Z,100429.88
2019-06-20T07:35:20.769Z,100423.41
2019-06-20T07:37:49.765Z,100421.45
2019-06-20T07:40:18.923Z,100423.63
2019-06-20T07:42:48.085Z,100424.78
2019-06-20T07:45:19.392Z,100422.01
2019-06-20T07:47:48.618Z,100419.43
2019-06-20T07:50:18.481Z,100420.81
2019-06-20T07:53:01.624Z,100422.09
2019-06-20T07:55:18.975Z,100416.28
2019-06-20T07:57:48.280Z,100424.98
2019-06-20T08:00:17.871Z,100413.25
2019-06-20T08:02:47.051Z,100416.50
2019-06-20T08:05:16.863Z,100418.23
2019-06-20T08:07:46.379Z,100417.60
2019-06-20T08:10:18.214Z,100416.80
2019-06-20T08:12:47.346Z,100426.09
2019-06-20T08:15:17.582Z,100416.07
2019-06-20T08:17:46.883Z,100412.60
2019-06-20T08:20:18.989Z,100414.13
2019-06-20T08:22:48.131Z,100413.13
2019-06-20T08:25:17.870Z,100415.53
2019-06-20T08:27:50.744Z,100417.67
2019-06-20T08:30:25.048Z,100416.14
2019-06-20T08:32:57.452Z,100420.05
2019-06-20T08:35:28.233Z,100428.48
2019-06-20T08:37:59.350Z,100424.09
2019-06-20T08:40:30.453Z,100420.71
2019-06-20T08:43:00.253Z,100426.33
2019-06-20T08:45:32.854Z,100426.16
2019-06-20T08:48:02.691Z,100424.39
2019-06-20T08:50:32.649Z,100425.53
2019-06-20T08:53:01.934Z,100430.13
2019-06-20T08:55:31.218Z,100423.95
2019-06-20T08:58:01.565Z,100423.84
2019-06-20T09:00:33.503Z,100415.56
2019-06-20T09:05:32.246Z,100412.33
2019-06-20T09:10:37.923Z,100416.60
2019-06-20T09:13:07.708Z,100422.16
2019-06-20T09:15:37.104Z,100413.03
2019-06-20T09:18:07.366Z,100412.69
2019-06-20T09:20:37.064Z,100413.46
2019-06-20T09:23:06.533Z,100420.58
2019-06-20T09:25:36.335Z,100413.03
2019-06-20T09:28:06.834Z,100410.30
2019-06-20T09:30:37.170Z,100411.34
2019-06-20T09:33:06.876Z,100405.21
2019-06-20T09:35:36.781Z,100407.70
2019-06-20T09:38:06.251Z,100417.69
2019-06-20T09:40:35.742Z,100414.17
2019-06-20T09:43:05.368Z,100413.57
2019-06-20T09:45:34.846Z,100417.84
2019-06-20T09:48:04.451Z,100415.53
2019-06-20T09:50:34.652Z,100423.09
2019-06-20T09:53:03.892Z,100417.48
2019-06-20T09:55:33.577Z,100424.33
2019-06-20T09:58:02.726Z,100432.16
2019-06-20T10:00:32.532Z,100426.83
2019-06-20T10:03:01.632Z,100435.38
2019-06-20T10:05:31.058Z,100432.59
2019-06-20T10:08:00.133Z,100438.21
2019-06-20T10:10:30.681Z,100430.34
2019-06-20T10:13:00.778Z,100436.09
2019-06-20T10:15:35.425Z,100434.02
2019-06-20T10:18:05.850Z,100440.02
2019-06-20T10:20:38.543Z,100442.45
2019-06-20T10:23:06.230Z,100443.73
2019-06-20T10:25:35.628Z,100444.06
2019-06-20T10:28:05.522Z,100441.55
2019-06-20T10:30:34.573Z,100442.04
2019-06-20T10:33:04.262Z,100444.60
2019-06-20T10:35:33.393Z,100437.77
2019-06-20T10:38:02.960Z,100441.88
2019-06-20T10:40:32.287Z,100440.55
2019-06-20T10:43:01.349Z,100438.80
2019-06-20T10:45:32.512Z,100437.11
2019-06-20T10:48:01.589Z,100440.84
2019-06-20T10:50:31.025Z,100441.09
2019-06-20T10:53:00.089Z,100433.76
2019-06-20T10:55:29.155Z,100438.80
2019-06-20T10:57:58.323Z,100436.02
2019-06-20T11:00:31.950Z,100444.55
2019-06-20T11:03:00.457Z,100443.87
2019-06-20T11:05:29.485Z,100446.42
2019-06-20T11:07:58.538Z,100437.86
2019-06-20T11:10:28.523Z,100435.69
2019-06-20T11:12:57.573Z,100433.69
2019-06-20T11:15:27.385Z,100425.97
2019-06-20T11:17:57.114Z,100424.22
2019-06-20T11:20:26.975Z,100417.83
2019-06-20T11:22:56.012Z,100425.74
2019-06-20T11:25:25.325Z,100432.59
2019-06-20T11:27:54.346Z,100421.52
2019-06-20T11:30:29.093Z,100421.89
2019-06-20T11:32:58.115Z,100424.00
2019-06-20T11:35:27.234Z,100423.85
2019-06-20T11:37:56.412Z,100421.89
2019-06-20T11:40:26.290Z,100418.02
2019-06-20T11:42:55.346Z,100409.45
2019-06-20T11:45:25.000Z,100415.61
2019-06-20T11:47:54.244Z,100408.63
2019-06-20T11:50:23.728Z,100422.41
2019-06-20T11:52:52.960Z,100411.64
2019-06-20T11:55:22.212Z,100416.89
2019-06-20T11:57:51.365Z,100417.39
2019-06-20T12:00:21.902Z,100419.42
2019-06-20T12:02:51.032Z,100424.34
2019-06-20T12:05:20.540Z,100434.22
2019-06-20T12:07:50.151Z,100431.73
2019-06-20T12:10:20.114Z,100436.35
2019-06-20T12:12:49.342Z,100435.09
2019-06-20T12:15:19.521Z,100437.53
2019-06-20T12:17:49.437Z,100437.88
2019-06-20T12:20:19.603Z,100443.34
2019-06-20T12:22:50.754Z,100421.01
2019-06-20T12:25:21.016Z,100426.03
2019-06-20T12:27:50.243Z,100425.58
2019-06-20T12:30:21.308Z,100423.50
2019-06-20T12:32:50.393Z,100418.92
2019-06-20T12:35:22.545Z,100423.92
2019-06-20T12:37:52.147Z,100423.48
2019-06-20T12:40:22.967Z,100426.98
2019-06-20T12:42:52.059Z,100437.34
2019-06-20T12:45:21.751Z,100437.20
2019-06-20T12:47:51.260Z,100433.79
2019-06-20T12:50:20.858Z,100403.36
2019-06-20T12:52:50.550Z,100426.42
2019-06-20T12:55:19.678Z,100425.78
2019-06-20T12:57:49.243Z,100423.78
2019-06-20T13:00:20.314Z,100432.09
2019-06-20T13:02:49.957Z,100438.39
2019-06-20T13:05:20.050Z,100436.39
2019-06-20T13:07:50.292Z,100429.59
2019-06-20T13:10:20.329Z,100423.69
2019-06-20T13:12:49.970Z,100434.77
2019-06-20T13:15:20.505Z,100442.08
2019-06-20T13:17:50.530Z,100450.37
2019-06-20T13:20:21.482Z,100462.86
2019-06-20T13:22:50.885Z,100469.63
2019-06-20T13:25:20.008Z,100478.42
2019-06-20T13:27:50.541Z,100492.98
2019-06-20T13:30:20.663Z,100476.21
2019-06-20T13:32:49.814Z,100485.84
2019-06-20T13:35:20.354Z,100485.77
2019-06-20T13:37:50.055Z,100494.55
2019-06-20T13:40:20.409Z,100502.63
2019-06-20T13:42:50.330Z,100501.84
2019-06-20T13:45:26.549Z,100509.50
2019-06-20T13:47:56.185Z,100509.66
2019-06-20T13:50:26.351Z,100507.47
2019-06-20T13:52:55.643Z,100504.31
2019-06-20T13:55:24.831Z,100501.42
2019-06-20T13:57:54.467Z,100495.59
2019-06-20T14:00:25.733Z,100491.23
2019-06-20T14:02:54.935Z,100500.14
2019-06-20T14:05:24.119Z,100465.73
2019-06-20T14:07:54.257Z,100505.12
2019-06-20T14:10:24.508Z,100519.00
2019-06-20T14:12:54.077Z,100519.10
2019-06-20T14:15:24.061Z,100513.02
2019-06-20T14:17:55.809Z,100521.05
2019-06-20T14:20:25.201Z,100521.27
2019-06-20T14:22:54.950Z,100521.78
2019-06-20T14:25:24.616Z,100530.81
2019-06-20T14:27:54.075Z,100535.69
2019-06-20T14:30:25.662Z,100542.63
2019-06-20T14:32:56.410Z,100543.54
2019-06-20T14:35:25.712Z,100536.92
2019-06-20T14:37:55.721Z,100548.52
2019-06-20T14:40:24.815Z,100550.91
2019-06-20T14:42:54.506Z,100554.11
2019-06-20T14:45:23.925Z,100556.94
2019-06-20T14:47:53.047Z,100554.84
2019-06-20T14:50:22.807Z,100551.26
2019-06-20T14:52:52.368Z,100553.77
2019-06-20T14:55:22.627Z,100549.49
2019-06-20T14:57:52.476Z,100551.29
2019-06-20T15:00:22.403Z,100551.34
2019-06-20T15:02:54.468Z,100549.45
2019-06-20T15:05:22.755Z,100554.10
2019-06-20T15:07:53.766Z,100551.77
2019-06-20T15:10:22.847Z,100557.48
2019-06-20T15:12:53.634Z,100559.02
2019-06-20T15:15:22.983Z,100564.02
2019-06-20T15:17:54.032Z,100571.48
2019-06-20T15:20:22.840Z,100562.56
2019-06-20T15:22:52.723Z,100572.52
2019-06-20T15:25:22.561Z,100572.00
2019-06-20T15:27:53.354Z,100572.50
2019-06-20T15:30:22.408Z,100569.55
2019-06-20T15:33:04.056Z,100566.35
2019-06-20T15:35:22.452Z,100556.11
2019-06-20T15:37:54.362Z,100554.22
2019-06-20T15:40:25.574Z,100556.11
2019-06-20T15:42:55.365Z,100559.52
2019-06-20T15:45:25.532Z,100561.48
2019-06-20T15:47:54.745Z,100558.16
2019-06-20T15:50:23.907Z,100563.45
2019-06-20T15:52:52.987Z,100560.66
2019-06-20T15:55:22.032Z,100553.09
2019-06-20T15:57:54.014Z,100564.80
2019-06-20T16:00:22.195Z,100564.27
2019-06-20T16:02:51.284Z,100562.55
2019-06-20T16:05:20.887Z,100564.70
2019-06-20T16:07:49.959Z,100569.47
2019-06-20T16:10:19.441Z,100571.55
2019-06-20T16:12:48.691Z,100563.03
2019-06-20T16:15:22.803Z,100566.77
2019-06-20T16:17:52.313Z,100572.56
2019-06-20T16:20:22.607Z,100572.36
2019-06-20T16:22:52.307Z,100577.67
2019-06-20T16:25:22.081Z,100576.59
2019-06-20T16:27:51.535Z,100581.80
2019-06-20T16:30:21.904Z,100580.97
2019-06-20T16:32:51.070Z,100577.91
2019-06-20T16:35:20.353Z,100578.33
2019-06-20T16:37:49.498Z,100576.42
2019-06-20T16:40:21.774Z,100580.59
2019-06-20T16:42:50.803Z,100575.28
2019-06-20T16:45:20.235Z,100570.75
2019-06-20T16:47:49.657Z,100564.67
2019-06-20T16:50:18.947Z,100568.91
2019-06-20T16:52:47.980Z,100579.37
2019-06-20T16:55:17.582Z,100577.41
2019-06-20T16:57:46.686Z,100573.61
2019-06-20T17:00:16.452Z,100580.45
2019-06-20T17:02:45.724Z,100589.33
2019-06-20T17:05:15.128Z,100592.22
2019-06-20T17:07:44.189Z,100589.84
2019-06-20T17:10:14.335Z,100594.60
2019-06-20T17:12:43.610Z,100598.39
2019-06-20T17:15:13.769Z,100590.91
2019-06-20T17:17:42.945Z,100588.63
2019-06-20T17:20:12.807Z,100586.59
2019-06-20T17:22:43.418Z,100590.41
2019-06-20T17:25:13.974Z,100599.84
2019-06-20T17:27:43.795Z,100596.02
2019-06-20T17:30:15.714Z,100595.16
2019-06-20T17:32:44.849Z,100590.91
2019-06-20T17:35:15.721Z,100593.39
2019-06-20T17:37:45.244Z,100593.39
2019-06-20T17:40:16.401Z,100594.83
2019-06-20T17:42:45.674Z,100593.79
2019-06-20T17:45:16.001Z,100605.18
2019-06-20T17:47:45.073Z,100605.30
2019-06-20T17:50:15.077Z,100610.06
2019-06-20T17:52:44.129Z,100613.26
2019-06-20T17:55:14.028Z,100617.77
2019-06-20T17:57:43.304Z,100619.27
2019-06-20T18:00:17.086Z,100614.11
2019-06-20T18:02:46.301Z,100620.98
2019-06-20T18:05:16.414Z,100615.65
2019-06-20T18:07:45.894Z,100618.70
2019-06-20T18:10:16.340Z,100620.22
2019-06-20T18:12:45.386Z,100619.19
2019-06-20T18:15:15.292Z,100622.39
2019-06-20T18:17:44.322Z,100618.27
2019-06-20T18:20:14.409Z,100616.95
2019-06-20T18:22:43.527Z,100616.34
2019-06-20T18:25:13.395Z,100619.45
2019-06-20T18:27:42.580Z,100622.58
2019-06-20T18:30:12.652Z,100633.09
2019-06-20T18:32:41.842Z,100633.11
2019-06-20T18:35:11.795Z,100623.72
2019-06-20T18:37:40.983Z,100631.38
2019-06-20T18:40:12.206Z,100630.37
2019-06-20T18:42:41.322Z,100637.91
2019-06-20T18:45:12.687Z,100644.08
2019-06-20T18:47:41.751Z,100642.75
2019-06-20T18:50:11.102Z,100645.75
2019-06-20T18:52:51.531Z,100645.82
2019-06-20T18:55:11.647Z,100651.72
2019-06-20T18:57:40.853Z,100649.81
2019-06-20T19:00:13.213Z,100652.67
2019-06-20T19:02:42.365Z,100661.65
2019-06-20T19:05:12.255Z,100659.52
2019-06-20T19:07:41.648Z,100664.13
2019-06-20T19:10:11.520Z,100671.09
2019-06-20T19:12:41.150Z,100675.13
2019-06-20T19:15:10.829Z,100677.22
2019-06-20T19:17:39.907Z,100682.91
2019-06-20T19:20:09.424Z,100687.06
2019-06-20T19:22:38.540Z,100687.92
2019-06-20T19:25:09.204Z,100690.83
2019-06-20T19:27:46.125Z,100689.11
2019-06-20T19:30:10.685Z,100696.92
2019-06-20T19:32:39.919Z,100696.73
2019-06-20T19:35:10.532Z,100702.05
2019-06-20T19:37:39.783Z,100696.49
2019-06-20T19:40:10.068Z,100695.95
2019-06-20T19:42:39.114Z,100701.16
2019-06-20T19:45:11.635Z,100699.49
2019-06-20T19:47:41.039Z,100703.64
2019-06-20T19:50:11.543Z,100708.36
2019-06-20T19:52:40.960Z,100707.74
2019-06-20T19:55:11.265Z,100716.07
2019-06-20T19:57:40.368Z,100728.44
2019-06-20T20:00:11.327Z,100729.01
2019-06-20T20:02:40.481Z,100742.73
2019-06-20T20:05:18.933Z,100750.59
2019-06-20T20:07:40.894Z,100751.17
2019-06-20T20:10:10.772Z,100757.12
2019-06-20T20:12:39.818Z,100756.67
2019-06-20T20:15:09.317Z,100766.25
2019-06-20T20:17:38.411Z,100764.75
2019-06-20T20:20:08.308Z,100766.23
2019-06-20T20:22:37.485Z,100767.95
2019-06-20T20:25:08.000Z,100769.64
2019-06-20T20:27:37.053Z,100759.20
2019-06-20T20:30:11.171Z,100770.31
2019-06-20T20:32:40.695Z,100770.14
2019-06-20T20:35:09.986Z,100770.77
2019-06-20T20:37:39.019Z,100767.71
2019-06-20T20:40:09.628Z,100769.72
2019-06-20T20:42:38.659Z,100772.21
2019-06-20T20:45:08.792Z,100779.80
2019-06-20T20:47:37.996Z,100779.52
2019-06-20T20:50:08.424Z,100781.34
2019-06-20T20:52:37.750Z,100778.41
2019-06-20T20:55:11.165Z,100780.23
2019-06-20T20:57:40.196Z,100779.00
2019-06-20T21:00:16.691Z,100778.79
2019-06-20T21:02:45.821Z,100787.47
2019-06-20T21:05:14.887Z,100793.30
2019-06-20T21:07:43.936Z,100797.67
2019-06-20T21:10:13.318Z,100796.36
2019-06-20T21:12:42.406Z,100801.76
2019-06-20T21:15:11.733Z,100806.24
2019-06-20T21:17:40.811Z,100806.97
2019-06-20T21:20:10.904Z,100808.17
2019-06-20T21:22:39.957Z,100809.98
2019-06-20T21:25:10.346Z,100812.90
2019-06-20T21:27:39.418Z,100821.83
2019-06-20T21:30:10.092Z,100824.80
2019-06-20T21:32:39.149Z,100827.88
2019-06-20T21:35:09.236Z,100826.19
2019-06-20T21:37:38.754Z,100835.94
2019-06-20T21:40:09.235Z,100830.47
2019-06-20T21:42:38.417Z,100833.46
2019-06-20T21:45:08.406Z,100836.78
2019-06-20T21:47:38.028Z,100834.52
2019-06-20T21:50:08.095Z,100840.03
2019-06-20T21:52:37.827Z,100843.20
2019-06-20T21:55:09.313Z,100849.11
2019-06-20T21:57:38.561Z,100854.59
2019-06-20T22:00:13.852Z,100860.23
2019-06-20T22:02:43.049Z,100859.84
2019-06-20T22:05:12.638Z,100855.88
2019-06-20T22:07:41.847Z,100859.73
2019-06-20T22:10:11.231Z,100855.36
2019-06-20T22:12:40.286Z,100864.16
2019-06-20T22:15:09.851Z,100859.61
2019-06-20T22:17:39.336Z,100867.43
2019-06-20T22:20:09.139Z,100859.70
2019-06-20T22:22:38.207Z,100866.23
2019-06-20T22:25:08.867Z,100864.89
2019-06-20T22:27:38.001Z,100869.06
2019-06-20T22:30:12.409Z,100861.72
2019-06-20T22:32:41.564Z,100862.18
2019-06-20T22:35:11.057Z,100864.80
2019-06-20T22:37:40.225Z,100864.63
2019-06-20T22:40:10.228Z,100868.34
2019-06-20T22:42:39.249Z,100873.33
2019-06-20T22:45:10.447Z,100876.05
2019-06-20T22:47:39.548Z,100873.93
2019-06-20T22:50:09.565Z,100880.94
2019-06-20T22:52:38.596Z,100879.39
2019-06-20T22:55:08.905Z,100878.25
2019-06-20T22:57:38.116Z,100886.70
2019-06-20T23:00:09.439Z,100884.66
2019-06-20T23:02:38.549Z,100882.84
2019-06-20T23:05:08.853Z,100885.73
2019-06-20T23:07:37.896Z,100888.97
2019-06-20T23:10:10.900Z,100889.78
2019-06-20T23:12:39.455Z,100891.06
2019-06-20T23:15:09.853Z,100890.52
2019-06-20T23:17:38.928Z,100901.52
2019-06-20T23:20:10.191Z,100906.31
2019-06-20T23:22:39.263Z,100910.37
2019-06-20T23:25:08.865Z,100909.73
2019-06-20T23:27:37.946Z,100911.08
2019-06-20T23:30:11.960Z,100911.28
2019-06-20T23:32:41.025Z,100918.37
2019-06-20T23:35:11.830Z,100914.44
2019-06-20T23:37:40.860Z,100912.78
2019-06-20T23:40:11.300Z,100898.87
2019-06-20T23:42:40.358Z,100906.51
2019-06-20T23:45:10.661Z,100914.95
2019-06-20T23:47:39.759Z,100918.63
2019-06-20T23:50:20.040Z,100913.05
2019-06-20T23:53:09.833Z,100911.05
2019-06-20T23:55:38.982Z,100904.46
2019-06-20T23:58:08.199Z,100917.76
